Time;durP1;ratioP1;P1;durP2;ratioP2;P2;SDS_P1;SDS_P2;PMS_P1;PMS_P2;Temp;Humidity;BMP_temperature;BMP_pressure;BME280_temperature;BME280_humidity;BME280_pressure;Samples;Min_cycle;Max_cycle;Signal;HPM_P1;HPM_P2
2022/10/26 00:01:56;;;;;;;9.53;4.00;;;13.20;99.90;;;;;;5062513;28;20608;-65
2022/10/26 00:04:24;;;;;;;6.07;3.90;;;13.20;99.90;;;;;;5064077;28;20965;-65
2022/10/26 00:06:53;;;;;;;14.30;6.13;;;13.20;99.90;;;;;;5053610;28;20603;-65
2022/10/26 00:09:21;;;;;;;11.67;5.23;;;13.20;99.90;;;;;;5060517;28;20592;-65
2022/10/26 00:11:49;;;;;;;6.47;4.10;;;13.20;99.90;;;;;;5073202;28;20589;-65
2022/10/26 00:14:18;;;;;;;7.20;4.90;;;13.10;99.90;;;;;;5073224;28;21143;-65
2022/10/26 00:16:45;;;;;;;7.03;3.77;;;13.20;99.90;;;;;;5073299;28;21022;-65
2022/10/26 00:19:14;;;;;;;7.13;3.60;;;13.20;99.90;;;;;;5073742;28;20592;-65
2022/10/26 00:21:42;;;;;;;7.40;4.20;;;13.10;99.90;;;;;;5064998;28;20646;-65
2022/10/26 00:24:12;;;;;;;7.70;4.27;;;13.20;99.90;;;;;;5053517;28;20920;-65
2022/10/26 00:26:40;;;;;;;6.27;4.57;;;13.20;99.90;;;;;;5053271;28;20554;-65
2022/10/26 00:29:10;;;;;;;4.40;4.00;;;13.20;99.90;;;;;;5051572;28;20594;-65
2022/10/26 00:31:39;;;;;;;11.50;4.73;;;13.20;99.90;;;;;;5053237;28;20622;-64
2022/10/26 00:34:06;;;;;;;13.60;4.70;;;13.20;99.90;;;;;;5053661;28;20601;-65
2022/10/26 00:36:34;;;;;;;7.93;4.30;;;13.20;99.90;;;;;;5052480;28;20650;-65
2022/10/26 00:39:03;;;;;;;4.97;4.40;;;13.20;99.90;;;;;;5053621;28;20589;-65
2022/10/26 00:41:34;;;;;;;8.80;4.50;;;13.20;99.90;;;;;;5052837;28;20610;-65
2022/10/26 00:44:40;;;;;;;8.53;5.20;;;13.20;99.90;;;;;;5051689;28;21123;-65
2022/10/26 00:47:10;;;;;;;6.47;4.20;;;13.20;99.90;;;;;;5052276;28;21288;-65
2022/10/26 00:49:38;;;;;;;6.77;4.37;;;13.20;99.90;;;;;;5052712;28;20626;-63
2022/10/26 00:52:08;;;;;;;7.03;4.33;;;13.10;99.90;;;;;;5052076;28;20627;-66
2022/10/26 00:54:36;;;;;;;4.50;4.10;;;13.20;99.90;;;;;;5052825;28;20634;-66
2022/10/26 00:57:06;;;;;;;9.47;4.13;;;13.20;99.90;;;;;;5055419;28;20648;-66
2022/10/26 00:59:34;;;;;;;7.00;4.97;;;13.20;99.90;;;;;;5072516;28;20629;-66
2022/10/26 01:02:03;;;;;;;7.23;4.10;;;13.20;99.90;;;;;;5071492;28;20597;-65
2022/10/26 01:04:31;;;;;;;11.13;4.17;;;13.10;99.90;;;;;;5056537;28;20612;-65
2022/10/26 01:07:00;;;;;;;11.40;5.07;;;13.10;99.90;;;;;;5053167;28;20608;-64
2022/10/26 01:09:28;;;;;;;10.07;4.47;;;13.10;99.90;;;;;;5062104;28;20588;-64
2022/10/26 01:11:56;;;;;;;5.37;4.07;;;13.10;99.90;;;;;;5073216;28;20614;-64
2022/10/26 01:14:28;;;;;;;6.67;4.80;;;13.10;99.90;;;;;;5067528;28;20601;-64
2022/10/26 01:17:06;;;;;;;11.07;5.50;;;13.10;99.90;;;;;;5052729;28;20605;-65
2022/10/26 01:20:07;;;;;;;8.23;4.77;;;13.10;99.90;;;;;;5060403;28;20594;-65
2022/10/26 01:22:41;;;;;;;6.33;3.70;;;13.10;99.90;;;;;;5072232;28;20587;-64
2022/10/26 01:25:25;;;;;;;8.30;4.47;;;13.10;99.90;;;;;;5072222;28;20549;-65
2022/10/26 01:27:54;;;;;;;9.60;3.90;;;13.10;99.90;;;;;;5072325;28;20589;-64
2022/10/26 01:30:35;;;;;;;12.30;4.80;;;13.10;99.90;;;;;;5072237;28;20622;-64
2022/10/26 01:33:22;;;;;;;8.33;4.00;;;13.10;99.90;;;;;;5052669;28;20686;-64
2022/10/26 01:36:09;;;;;;;10.37;5.60;;;13.00;99.90;;;;;;5051164;28;20586;-64
2022/10/26 01:38:47;;;;;;;7.67;4.17;;;13.00;99.90;;;;;;5068445;28;20621;-64
2022/10/26 01:41:24;;;;;;;5.77;4.80;;;13.00;99.90;;;;;;5071982;28;20590;-64
2022/10/26 01:43:56;;;;;;;8.43;4.53;;;13.00;99.90;;;;;;5075335;28;20586;-64
2022/10/26 01:46:29;;;;;;;5.33;4.63;;;13.10;99.90;;;;;;5076406;28;20574;-64
2022/10/26 01:49:01;;;;;;;6.80;4.73;;;13.10;99.90;;;;;;5068130;28;20607;-64
2022/10/26 01:51:30;;;;;;;9.10;5.00;;;13.10;99.90;;;;;;5075336;28;20615;-64
2022/10/26 01:53:58;;;;;;;11.60;4.47;;;13.10;99.90;;;;;;5074551;28;20658;-64
2022/10/26 01:56:29;;;;;;;9.87;4.50;;;13.10;99.90;;;;;;5074240;28;20654;-64
2022/10/26 01:59:12;;;;;;;11.63;4.27;;;13.10;99.90;;;;;;5076264;28;20576;-65
2022/10/26 02:02:09;;;;;;;7.67;3.67;;;13.10;99.90;;;;;;5068266;28;20615;-62
2022/10/26 02:04:45;;;;;;;9.63;4.37;;;13.10;99.90;;;;;;5053737;28;20629;-64
2022/10/26 02:07:24;;;;;;;3.87;3.57;;;13.20;99.90;;;;;;5054793;28;20615;-63
2022/10/26 02:09:59;;;;;;;6.67;4.97;;;13.20;99.90;;;;;;5069134;28;20971;-63
2022/10/26 02:12:38;;;;;;;10.27;4.40;;;13.20;99.90;;;;;;5054660;28;20618;-63
2022/10/26 02:15:11;;;;;;;11.40;4.40;;;13.20;99.90;;;;;;5054949;28;20579;-63
2022/10/26 02:17:49;;;;;;;6.57;3.83;;;13.20;99.90;;;;;;5054981;28;20647;-63
2022/10/26 02:20:22;;;;;;;9.43;4.73;;;13.20;99.90;;;;;;5055487;28;20886;-63
2022/10/26 02:22:52;;;;;;;7.10;4.00;;;13.20;99.90;;;;;;5055109;28;20645;-63
2022/10/26 02:25:23;;;;;;;8.70;4.60;;;13.20;99.90;;;;;;5055722;28;20619;-64
2022/10/26 02:27:56;;;;;;;4.50;4.07;;;13.20;99.90;;;;;;5067053;28;20615;-63
2022/10/26 02:30:24;;;;;;;11.73;3.90;;;13.20;99.90;;;;;;5055980;28;20610;-63
2022/10/26 02:32:56;;;;;;;7.37;4.13;;;13.20;99.90;;;;;;5067152;28;20622;-63
2022/10/26 02:35:33;;;;;;;7.33;4.50;;;13.20;99.90;;;;;;5059174;28;20610;-63
2022/10/26 02:38:07;;;;;;;7.60;4.67;;;13.20;99.90;;;;;;5055675;28;20650;-63
2022/10/26 02:40:37;;;;;;;5.73;4.27;;;13.20;99.90;;;;;;5054433;28;20599;-63
2022/10/26 02:43:08;;;;;;;10.67;4.83;;;13.20;99.90;;;;;;5067181;28;20670;-63
2022/10/26 02:45:41;;;;;;;8.97;4.53;;;13.20;99.90;;;;;;5063343;28;20607;-63
2022/10/26 02:48:10;;;;;;;8.30;4.47;;;13.10;99.90;;;;;;5055688;28;20579;-63
2022/10/26 02:50:46;;;;;;;7.20;4.70;;;13.10;99.90;;;;;;5062027;28;20694;-64
2022/10/26 02:53:22;;;;;;;7.07;5.07;;;13.20;99.90;;;;;;5075006;28;21023;-64
2022/10/26 02:55:51;;;;;;;6.10;4.30;;;13.10;99.90;;;;;;5075080;28;20552;-64
2022/10/26 02:58:22;;;;;;;9.50;4.30;;;13.10;99.90;;;;;;5073383;28;20673;-65
2022/10/26 03:00:51;;;;;;;6.70;5.00;;;13.10;99.90;;;;;;5073990;28;20919;-65
2022/10/26 03:03:21;;;;;;;7.70;5.20;;;13.10;99.90;;;;;;5064438;28;20626;-65
2022/10/26 03:05:49;;;;;;;13.13;4.87;;;13.10;99.90;;;;;;5073627;28;20617;-65
2022/10/26 03:08:17;;;;;;;8.13;4.90;;;13.10;99.90;;;;;;5074887;28;20633;-65
2022/10/26 03:10:46;;;;;;;9.60;6.10;;;13.10;99.90;;;;;;5073849;28;20603;-64
2022/10/26 03:13:14;;;;;;;8.23;4.60;;;13.10;99.90;;;;;;5073687;28;20605;-64
2022/10/26 03:15:42;;;;;;;13.67;4.73;;;13.10;99.90;;;;;;5073709;28;20621;-64
2022/10/26 03:18:10;;;;;;;6.00;5.50;;;13.10;99.90;;;;;;5074581;28;21027;-65
2022/10/26 03:20:40;;;;;;;7.40;5.00;;;13.10;99.90;;;;;;5073808;28;20593;-65
2022/10/26 03:23:08;;;;;;;5.60;4.70;;;13.10;99.90;;;;;;5074130;28;20588;-65
2022/10/26 03:25:36;;;;;;;8.63;5.00;;;13.10;99.90;;;;;;5072136;28;20605;-65
2022/10/26 03:28:05;;;;;;;14.33;5.47;;;13.10;99.90;;;;;;5062145;28;20610;-64
2022/10/26 03:30:33;;;;;;;7.47;5.23;;;13.10;99.90;;;;;;5073953;28;20593;-64
2022/10/26 03:33:01;;;;;;;6.50;4.80;;;13.10;99.90;;;;;;5056280;28;20594;-64
2022/10/26 03:35:29;;;;;;;9.80;4.80;;;13.10;99.90;;;;;;5053074;28;20677;-64
2022/10/26 03:37:59;;;;;;;5.43;4.80;;;13.10;99.90;;;;;;5053337;28;20633;-64
2022/10/26 03:40:27;;;;;;;9.90;5.13;;;13.00;99.90;;;;;;5054111;28;20593;-64
2022/10/26 03:42:55;;;;;;;7.57;4.77;;;12.90;99.90;;;;;;5053425;28;20618;-64
2022/10/26 03:45:23;;;;;;;9.53;5.40;;;12.90;99.90;;;;;;5071252;28;20679;-64
2022/10/26 03:47:52;;;;;;;12.73;4.70;;;12.90;99.90;;;;;;5068369;28;20597;-64
2022/10/26 03:50:21;;;;;;;8.27;5.60;;;12.90;99.90;;;;;;5054121;28;20641;-64
2022/10/26 03:52:50;;;;;;;6.80;4.40;;;12.90;99.90;;;;;;5064388;28;20662;-65
2022/10/26 03:55:19;;;;;;;8.83;4.60;;;12.90;99.90;;;;;;5053609;28;20619;-64
2022/10/26 03:57:47;;;;;;;8.33;4.47;;;12.80;99.90;;;;;;5073079;28;20765;-64
2022/10/26 04:00:17;;;;;;;11.40;4.70;;;12.80;99.90;;;;;;5053221;28;21251;-64
2022/10/26 04:02:47;;;;;;;9.70;5.30;;;12.80;99.90;;;;;;5053615;28;20605;-64
2022/10/26 04:05:15;;;;;;;12.33;5.30;;;12.80;99.90;;;;;;5062183;28;20971;-64
2022/10/26 04:07:43;;;;;;;10.30;4.93;;;12.70;99.90;;;;;;5053062;28;20977;-64
2022/10/26 04:10:11;;;;;;;9.90;4.70;;;12.70;99.90;;;;;;5067516;28;20592;-65
2022/10/26 04:12:40;;;;;;;8.60;4.60;;;12.60;99.90;;;;;;5073295;28;20622;-64
2022/10/26 04:15:10;;;;;;;7.70;4.60;;;12.60;99.90;;;;;;5072186;28;20976;-64
2022/10/26 04:17:38;;;;;;;9.00;5.00;;;12.50;99.90;;;;;;5071441;28;20645;-64
2022/10/26 04:20:07;;;;;;;10.93;6.17;;;12.50;99.90;;;;;;5063580;28;20638;-64
2022/10/26 04:22:35;;;;;;;7.90;5.40;;;12.40;99.90;;;;;;5051858;28;21220;-64
2022/10/26 04:25:04;;;;;;;5.83;5.30;;;12.40;99.90;;;;;;5066393;28;20593;-64
2022/10/26 04:27:32;;;;;;;9.27;4.90;;;12.50;99.90;;;;;;5072963;28;20629;-65
2022/10/26 04:30:02;;;;;;;11.83;5.10;;;12.40;99.90;;;;;;5072562;28;20614;-65
2022/10/26 04:32:30;;;;;;;7.60;5.33;;;12.40;99.90;;;;;;5072946;28;20580;-64
2022/10/26 04:34:58;;;;;;;9.60;5.47;;;12.40;99.90;;;;;;5072524;28;20620;-64
2022/10/26 04:37:26;;;;;;;8.40;5.03;;;12.40;99.90;;;;;;5057083;28;20586;-64
2022/10/26 04:39:54;;;;;;;10.60;5.43;;;12.50;99.90;;;;;;5052293;28;21220;-64
2022/10/26 04:42:22;;;;;;;9.63;6.10;;;12.50;99.90;;;;;;5057773;28;20619;-66
2022/10/26 04:44:50;;;;;;;11.43;6.20;;;12.50;99.90;;;;;;5059151;28;20652;-65
2022/10/26 04:47:19;;;;;;;17.40;5.47;;;12.50;99.90;;;;;;5051947;28;20585;-64
2022/10/26 04:49:47;;;;;;;9.33;4.93;;;12.50;99.90;;;;;;5072709;28;20622;-64
2022/10/26 04:52:15;;;;;;;9.40;5.90;;;12.40;99.90;;;;;;5071711;28;20616;-64
2022/10/26 04:54:43;;;;;;;8.47;5.10;;;12.30;99.90;;;;;;5071837;28;20557;-64
2022/10/26 04:57:11;;;;;;;11.67;5.07;;;12.40;99.90;;;;;;5072008;28;21019;-64
2022/10/26 04:59:39;;;;;;;8.17;5.00;;;12.40;99.90;;;;;;5071423;28;21015;-64
2022/10/26 05:02:07;;;;;;;7.43;5.20;;;12.30;99.90;;;;;;5070118;28;21023;-65
2022/10/26 05:04:36;;;;;;;7.43;5.00;;;12.40;99.90;;;;;;5062667;28;20592;-64
2022/10/26 05:07:04;;;;;;;6.07;5.23;;;12.30;99.90;;;;;;5078526;28;20634;-64
2022/10/26 05:09:32;;;;;;;10.53;5.60;;;12.30;99.90;;;;;;5069907;28;20970;-65
2022/10/26 05:12:00;;;;;;;19.20;6.13;;;12.30;99.90;;;;;;5069765;28;21219;-65
2022/10/26 05:14:28;;;;;;;7.40;5.47;;;12.30;99.90;;;;;;5072415;28;20628;-65
2022/10/26 05:16:57;;;;;;;5.67;5.10;;;12.30;99.90;;;;;;5065834;28;20613;-65
2022/10/26 05:19:25;;;;;;;9.30;5.27;;;12.30;99.90;;;;;;5051373;28;20655;-65
2022/10/26 05:21:54;;;;;;;11.77;4.90;;;12.30;99.90;;;;;;5064815;28;20609;-64
2022/10/26 05:24:22;;;;;;;9.53;5.60;;;12.30;99.90;;;;;;5051033;28;21114;-65
2022/10/26 05:26:50;;;;;;;9.00;5.75;;;12.30;99.90;;;;;;5062314;28;20760;-68
2022/10/26 05:29:18;;;;;;;6.77;5.27;;;12.40;99.90;;;;;;5070212;28;20200;-66
2022/10/26 05:31:46;;;;;;;15.35;6.03;;;12.40;99.90;;;;;;5071389;28;20600;-66
2022/10/26 05:34:14;;;;;;;8.57;5.57;;;12.30;99.90;;;;;;5070644;28;20605;-66
2022/10/26 05:36:42;;;;;;;7.70;6.27;;;12.30;99.90;;;;;;5086300;28;21008;-65
2022/10/26 05:39:12;;;;;;;6.30;5.33;;;12.40;99.90;;;;;;5085607;28;21027;-65
2022/10/26 05:41:40;;;;;;;8.40;5.77;;;12.30;99.90;;;;;;5070443;28;20618;-63
2022/10/26 05:44:08;;;;;;;9.47;5.93;;;12.30;99.90;;;;;;5070964;28;20596;-63
2022/10/26 05:46:35;;;;;;;8.50;5.70;;;12.40;99.90;;;;;;5070310;28;21156;-65
2022/10/26 05:49:03;;;;;;;5.20;4.70;;;12.40;99.90;;;;;;5086700;28;20589;-63
2022/10/26 05:51:36;;;;;;;10.80;5.23;;;12.40;99.90;;;;;;5070590;28;20585;-65
2022/10/26 05:54:04;;;;;;;8.90;4.77;;;12.40;99.90;;;;;;5069456;28;20631;-64
2022/10/26 05:56:37;;;;;;;5.40;4.50;;;12.50;99.90;;;;;;5070220;28;20635;-65
2022/10/26 05:59:10;;;;;;;16.10;5.07;;;12.50;99.90;;;;;;5065494;28;21000;-65
2022/10/26 06:01:50;;;;;;;9.13;4.80;;;12.50;99.90;;;;;;5059117;28;20596;-64
2022/10/26 06:04:29;;;;;;;5.40;4.70;;;12.50;99.90;;;;;;5059232;28;20584;-65
2022/10/26 06:06:58;;;;;;;8.40;4.33;;;12.50;99.90;;;;;;5056768;28;20635;-64
2022/10/26 06:09:27;;;;;;;11.00;5.33;;;12.50;99.90;;;;;;5058564;28;20643;-65
2022/10/26 06:11:57;;;;;;;9.57;5.03;;;12.50;99.90;;;;;;5060067;28;20622;-64
2022/10/26 06:14:25;;;;;;;10.40;5.43;;;12.50;99.90;;;;;;5059787;28;20636;-64
2022/10/26 06:17:04;;;;;;;8.27;4.87;;;12.50;99.90;;;;;;5057192;28;20612;-65
2022/10/26 06:19:51;;;;;;;6.13;4.80;;;12.50;99.90;;;;;;5065372;28;20620;-65
2022/10/26 06:22:31;;;;;;;11.07;5.00;;;12.40;99.90;;;;;;5062067;28;20901;-64
2022/10/26 06:25:09;;;;;;;7.80;6.37;;;12.50;99.90;;;;;;5054698;28;20619;-65
2022/10/26 06:27:46;;;;;;;7.33;4.90;;;12.60;99.90;;;;;;5059100;28;20599;-64
2022/10/26 06:30:14;;;;;;;9.37;5.33;;;12.60;99.90;;;;;;5060404;28;20982;-64
2022/10/26 06:32:45;;;;;;;16.63;6.07;;;12.70;99.90;;;;;;5062645;28;20598;-63
2022/10/26 06:35:22;;;;;;;8.00;5.37;;;12.70;99.90;;;;;;5061037;28;21021;-66
2022/10/26 06:37:51;;;;;;;9.57;5.60;;;12.70;99.90;;;;;;5063970;28;20606;-64
2022/10/26 06:40:21;;;;;;;7.77;5.83;;;12.70;99.90;;;;;;5061896;28;20691;-64
2022/10/26 06:42:51;;;;;;;9.33;5.80;;;12.80;99.90;;;;;;5063205;28;20635;-64
2022/10/26 06:45:20;;;;;;;7.83;4.80;;;12.80;99.90;;;;;;5062612;28;20611;-65
2022/10/26 06:47:54;;;;;;;6.90;4.97;;;12.90;99.90;;;;;;5061689;28;20602;-65
2022/10/26 06:50:37;;;;;;;8.40;4.80;;;12.80;99.90;;;;;;5055868;28;20561;-65
2022/10/26 06:53:16;;;;;;;11.73;6.47;;;12.80;99.90;;;;;;5058490;28;20617;-65
2022/10/26 06:55:48;;;;;;;7.80;5.73;;;12.90;99.90;;;;;;5068370;28;20568;-65
2022/10/26 06:58:19;;;;;;;8.03;5.53;;;12.90;99.90;;;;;;5074031;28;21012;-65
2022/10/26 07:00:50;;;;;;;12.30;5.57;;;13.00;99.90;;;;;;5071043;28;20652;-65
2022/10/26 07:03:18;;;;;;;10.57;5.43;;;13.00;99.90;;;;;;5063468;28;20637;-64
2022/10/26 07:05:46;;;;;;;9.20;5.53;;;13.00;99.90;;;;;;5058524;28;20614;-65
2022/10/26 07:08:14;;;;;;;10.00;5.60;;;13.10;99.90;;;;;;5069396;28;20665;-65
2022/10/26 07:10:42;;;;;;;13.33;5.23;;;13.20;99.90;;;;;;5067885;28;20602;-65
2022/10/26 07:13:10;;;;;;;7.03;5.70;;;13.20;99.90;;;;;;5053666;28;20605;-64
2022/10/26 07:15:41;;;;;;;6.90;4.77;;;13.30;99.90;;;;;;5058855;28;20629;-64
2022/10/26 07:18:10;;;;;;;8.77;5.47;;;13.30;99.90;;;;;;5069122;28;21030;-65
2022/10/26 07:20:39;;;;;;;10.90;5.03;;;13.30;99.90;;;;;;5063607;28;20636;-64
2022/10/26 07:23:09;;;;;;;8.87;5.67;;;13.40;99.90;;;;;;5072189;28;20638;-65
2022/10/26 07:25:39;;;;;;;27.73;5.43;;;13.40;99.90;;;;;;5072881;28;20977;-64
2022/10/26 07:28:09;;;;;;;8.70;6.23;;;13.40;99.90;;;;;;5070457;28;20720;-64
2022/10/26 07:30:39;;;;;;;11.07;4.70;;;13.50;99.90;;;;;;5065610;28;20636;-64
2022/10/26 07:33:09;;;;;;;4.50;3.80;;;13.50;99.90;;;;;;5060150;28;20629;-64
2022/10/26 07:35:38;;;;;;;7.63;4.40;;;13.50;99.90;;;;;;5072117;28;20618;-64
2022/10/26 07:38:06;;;;;;;6.43;4.10;;;13.60;99.90;;;;;;5072231;28;20629;-64
2022/10/26 07:40:35;;;;;;;6.23;4.50;;;13.60;99.90;;;;;;5068813;28;20726;-64
2022/10/26 07:43:03;;;;;;;6.27;3.87;;;13.60;99.90;;;;;;5063628;28;20642;-64
2022/10/26 07:45:31;;;;;;;4.93;4.40;;;13.70;99.90;;;;;;5068579;28;20989;-64
2022/10/26 07:48:01;;;;;;;6.40;4.20;;;13.80;99.90;;;;;;5060670;28;20685;-64
2022/10/26 07:50:29;;;;;;;10.43;4.40;;;13.80;99.90;;;;;;5052738;28;20971;-65
2022/10/26 07:52:58;;;;;;;6.97;3.67;;;13.90;99.90;;;;;;5069580;28;20650;-63
2022/10/26 07:55:27;;;;;;;5.83;4.37;;;14.00;99.90;;;;;;5069827;28;20643;-63
2022/10/26 07:57:55;;;;;;;6.83;3.90;;;14.00;99.90;;;;;;5062987;28;20655;-63
2022/10/26 08:00:24;;;;;;;9.77;4.90;;;14.10;99.90;;;;;;5064112;28;20719;-64
2022/10/26 08:02:52;;;;;;;14.40;4.60;;;14.10;99.90;;;;;;5058129;28;20642;-65
2022/10/26 08:05:22;;;;;;;4.20;3.90;;;14.10;99.90;;;;;;5054787;28;21173;-65
2022/10/26 08:07:50;;;;;;;8.10;4.00;;;14.10;99.90;;;;;;5070587;28;20697;-66
2022/10/26 08:10:18;;;;;;;6.90;4.83;;;14.10;99.90;;;;;;5069312;28;20625;-65
2022/10/26 08:12:46;;;;;;;5.43;3.43;;;14.20;99.90;;;;;;5061479;28;20975;-66
2022/10/26 08:15:14;;;;;;;4.53;4.23;;;14.20;99.90;;;;;;5071549;28;20645;-65
2022/10/26 08:17:42;;;;;;;5.00;4.47;;;14.20;99.90;;;;;;5066291;28;20631;-65
2022/10/26 08:20:11;;;;;;;6.37;4.20;;;14.20;99.90;;;;;;5051276;28;20654;-66
2022/10/26 08:22:41;;;;;;;6.43;4.73;;;14.30;99.90;;;;;;5058544;28;20641;-67
2022/10/26 08:25:09;;;;;;;7.73;4.17;;;14.30;99.90;;;;;;5064871;28;20615;-67
2022/10/26 08:27:38;;;;;;;8.17;4.13;;;14.30;99.90;;;;;;5072151;28;20622;-66
2022/10/26 08:30:07;;;;;;;4.57;4.03;;;14.40;99.90;;;;;;5072975;28;21007;-67
2022/10/26 08:32:35;;;;;;;6.03;4.07;;;14.50;99.90;;;;;;5055222;28;20635;-66
2022/10/26 08:35:03;;;;;;;4.33;3.80;;;14.70;99.90;;;;;;5066623;28;20680;-67
2022/10/26 08:37:32;;;;;;;8.57;5.17;;;14.90;99.90;;;;;;5061838;28;20605;-66
2022/10/26 08:40:01;;;;;;;5.50;3.60;;;15.10;99.90;;;;;;5055862;28;20626;-67
2022/10/26 08:42:37;;;;;;;5.80;4.03;;;15.30;99.90;;;;;;5072611;28;20599;-67
2022/10/26 08:45:11;;;;;;;7.50;4.33;;;15.50;99.90;;;;;;5071423;28;20704;-66
2022/10/26 08:47:45;;;;;;;5.23;3.43;;;15.60;99.90;;;;;;5063978;28;21168;-66
2022/10/26 08:50:26;;;;;;;5.90;3.63;;;15.70;99.90;;;;;;5066971;28;20650;-67
2022/10/26 08:53:01;;;;;;;8.33;3.50;;;15.90;99.90;;;;;;5052874;28;21243;-66
2022/10/26 08:55:39;;;;;;;5.53;3.53;;;16.00;99.90;;;;;;5060301;28;20613;-67
2022/10/26 08:58:14;;;;;;;4.43;3.13;;;16.20;99.90;;;;;;5054821;28;20624;-66
2022/10/26 09:00:43;;;;;;;8.40;3.90;;;16.20;99.90;;;;;;5059473;28;20649;-66
2022/10/26 09:03:15;;;;;;;5.50;3.50;;;16.10;99.90;;;;;;5071260;28;20942;-66
2022/10/26 09:05:54;;;;;;;3.83;3.23;;;16.20;99.90;;;;;;5071002;28;20956;-66
2022/10/26 09:08:35;;;;;;;6.63;3.40;;;16.00;99.90;;;;;;5071050;28;20587;-66
2022/10/26 09:11:19;;;;;;;7.83;3.33;;;15.90;99.90;;;;;;5066272;28;20627;-66
2022/10/26 09:14:00;;;;;;;7.60;3.97;;;15.90;99.90;;;;;;5058449;28;20645;-66
2022/10/26 09:16:38;;;;;;;6.80;3.40;;;16.00;99.90;;;;;;5052010;28;20579;-65
2022/10/26 09:19:28;;;;;;;5.20;3.20;;;16.20;99.90;;;;;;5071391;28;20582;-65
2022/10/26 09:22:03;;;;;;;9.83;4.30;;;16.30;99.90;;;;;;5070998;28;20649;-66
2022/10/26 09:24:32;;;;;;;5.73;3.00;;;16.50;99.90;;;;;;5067935;28;20602;-66
2022/10/26 09:27:12;;;;;;;8.70;3.37;;;16.60;99.90;;;;;;5069826;28;20649;-64
2022/10/26 09:29:42;;;;;;;6.30;3.43;;;16.60;99.90;;;;;;5071674;28;20932;-64
2022/10/26 09:32:17;;;;;;;4.50;3.57;;;16.80;99.90;;;;;;5072876;28;20618;-66
2022/10/26 09:34:49;;;;;;;3.80;2.90;;;16.90;99.90;;;;;;5068162;28;20982;-66
2022/10/26 09:37:23;;;;;;;8.60;3.13;;;17.20;99.90;;;;;;5059156;28;20614;-65
2022/10/26 09:39:58;;;;;;;10.87;3.67;;;17.40;99.90;;;;;;5062811;28;20625;-66
2022/10/26 09:42:37;;;;;;;7.97;3.20;;;17.70;99.90;;;;;;5064144;28;20648;-66
2022/10/26 09:45:13;;;;;;;4.80;3.60;;;17.80;99.90;;;;;;5062291;28;20996;-65
2022/10/26 09:47:45;;;;;;;6.80;3.67;;;17.70;99.90;;;;;;5058580;28;21152;-66
2022/10/26 09:50:22;;;;;;;9.50;3.50;;;17.60;99.90;;;;;;5068868;28;20633;-65
2022/10/26 09:52:50;;;;;;;3.30;3.00;;;17.50;99.90;;;;;;5066932;28;20724;-65
2022/10/26 09:55:19;;;;;;;6.93;3.20;;;17.60;99.90;;;;;;5058845;28;20920;-65
2022/10/26 09:57:52;;;;;;;9.00;3.87;;;17.70;99.90;;;;;;5056793;28;20647;-65
2022/10/26 10:00:22;;;;;;;7.83;3.10;;;17.80;99.90;;;;;;5065222;28;20585;-64
2022/10/26 10:02:52;;;;;;;5.83;2.97;;;17.70;99.90;;;;;;5068399;28;20622;-65
2022/10/26 10:05:32;;;;;;;11.50;3.50;;;17.60;99.90;;;;;;5073828;28;20622;-65
2022/10/26 10:08:19;;;;;;;4.27;3.33;;;17.50;99.90;;;;;;5067839;28;20697;-65
2022/10/26 10:11:02;;;;;;;6.10;3.17;;;17.70;99.90;;;;;;5068411;28;20606;-65
2022/10/26 10:13:37;;;;;;;4.83;3.30;;;17.90;99.90;;;;;;5056465;28;20957;-65
2022/10/26 10:16:10;;;;;;;4.40;3.20;;;17.80;99.90;;;;;;5055555;28;20999;-65
2022/10/26 10:18:39;;;;;;;4.43;3.50;;;17.80;99.90;;;;;;5068998;28;20954;-65
2022/10/26 10:21:09;;;;;;;3.60;3.30;;;18.00;99.90;;;;;;5073466;28;21295;-65
2022/10/26 10:23:48;;;;;;;3.10;2.40;;;18.00;99.90;;;;;;5069626;28;20704;-65
2022/10/26 10:26:17;;;;;;;6.53;2.90;;;18.10;99.90;;;;;;5068296;28;20610;-65
2022/10/26 10:28:57;;;;;;;3.73;3.00;;;18.20;99.90;;;;;;5075980;28;20613;-65
2022/10/26 10:31:29;;;;;;;3.43;3.00;;;18.20;99.90;;;;;;5071733;28;20626;-65
2022/10/26 10:33:57;;;;;;;3.97;3.00;;;18.50;99.90;;;;;;5064995;28;20602;-65
2022/10/26 10:36:29;;;;;;;5.43;3.30;;;18.50;99.90;;;;;;5068869;28;20623;-65
2022/10/26 10:38:57;;;;;;;3.20;2.90;;;18.40;99.90;;;;;;5060453;28;21004;-65
2022/10/26 10:41:28;;;;;;;4.70;2.80;;;18.60;99.90;;;;;;5058833;28;21075;-65
2022/10/26 10:44:03;;;;;;;3.83;2.77;;;18.80;99.90;;;;;;5072263;28;20691;-65
2022/10/26 10:46:31;;;;;;;5.77;2.73;;;18.90;99.90;;;;;;5069015;28;20994;-65
2022/10/26 10:49:04;;;;;;;5.00;3.07;;;19.00;99.90;;;;;;5066241;28;20635;-65
2022/10/26 10:51:40;;;;;;;10.50;2.90;;;19.00;99.90;;;;;;5065010;28;20608;-65
2022/10/26 10:54:22;;;;;;;6.57;3.23;;;19.30;99.90;;;;;;5067913;28;20647;-65
2022/10/26 10:56:53;;;;;;;5.43;2.83;;;19.50;99.90;;;;;;5063157;28;20719;-62
2022/10/26 10:59:42;;;;;;;6.60;2.87;;;19.40;99.90;;;;;;5064087;28;20629;-63
2022/10/26 11:02:31;;;;;;;5.60;2.97;;;19.30;99.90;;;;;;5067497;28;20642;-63
2022/10/26 11:05:13;;;;;;;7.13;3.40;;;19.10;99.90;;;;;;5073989;28;20621;-64
2022/10/26 11:07:47;;;;;;;3.33;2.47;;;19.20;99.90;;;;;;5073747;28;20620;-64
2022/10/26 11:10:18;;;;;;;7.17;3.67;;;19.30;99.90;;;;;;5074823;28;20581;-64
2022/10/26 11:12:55;;;;;;;6.63;2.83;;;19.40;99.90;;;;;;5074088;28;20592;-65
2022/10/26 11:15:28;;;;;;;5.60;2.93;;;19.60;99.90;;;;;;5073723;28;20597;-65
2022/10/26 11:18:03;;;;;;;4.37;2.80;;;19.70;99.90;;;;;;5074567;28;20582;-65
2022/10/26 11:20:35;;;;;;;7.60;3.30;;;19.80;99.90;;;;;;5073675;28;20570;-63
2022/10/26 11:23:09;;;;;;;12.70;2.77;;;19.90;99.90;;;;;;5074253;28;20657;-63
2022/10/26 11:25:43;;;;;;;4.60;2.50;;;19.80;99.90;;;;;;5063838;28;20673;-63
2022/10/26 11:28:16;;;;;;;3.10;2.47;;;20.20;99.90;;;;;;5053175;28;20679;-64
2022/10/26 11:30:50;;;;;;;6.07;3.30;;;20.30;99.90;;;;;;5065160;28;20628;-65
2022/10/26 11:33:25;;;;;;;5.20;2.97;;;20.40;99.90;;;;;;5072732;28;20670;-65
2022/10/26 11:35:58;;;;;;;7.53;3.60;;;20.80;99.90;;;;;;5069645;28;20625;-65
2022/10/26 11:38:33;;;;;;;6.90;3.53;;;20.40;99.90;;;;;;5065343;28;20608;-64
2022/10/26 11:41:05;;;;;;;6.43;2.73;;;20.20;99.90;;;;;;5062307;28;20609;-64
2022/10/26 11:43:38;;;;;;;5.10;2.67;;;20.40;99.90;;;;;;5070867;28;20653;-64
2022/10/26 11:46:13;;;;;;;3.97;2.90;;;20.40;99.90;;;;;;5072644;28;20964;-65
2022/10/26 11:48:47;;;;;;;10.57;3.43;;;20.70;99.90;;;;;;5074027;28;20593;-65
2022/10/26 11:51:22;;;;;;;4.47;3.07;;;20.50;99.90;;;;;;5071868;28;20610;-65
2022/10/26 11:53:51;;;;;;;9.00;3.53;;;20.90;99.90;;;;;;5064508;28;20653;-64
2022/10/26 11:56:30;;;;;;;12.10;4.10;;;21.70;99.90;;;;;;5072626;28;20661;-64
2022/10/26 11:58:59;;;;;;;3.60;2.60;;;22.00;99.90;;;;;;5072207;28;21132;-64
2022/10/26 12:01:29;;;;;;;8.23;3.27;;;21.90;99.90;;;;;;5071736;28;20611;-65
2022/10/26 12:04:00;;;;;;;2.50;2.30;;;21.60;99.90;;;;;;5072109;28;20679;-65
2022/10/26 12:06:32;;;;;;;11.00;3.60;;;21.90;99.90;;;;;;5070581;28;21007;-65
2022/10/26 12:09:05;;;;;;;7.90;2.30;;;22.20;99.90;;;;;;5068724;28;20634;-65
2022/10/26 12:11:41;;;;;;;3.60;2.13;;;21.90;99.90;;;;;;5056027;28;20634;-65
2022/10/26 12:14:19;;;;;;;7.67;3.03;;;22.20;99.90;;;;;;5053316;28;20945;-65
2022/10/26 12:16:57;;;;;;;8.43;3.10;;;22.40;99.90;;;;;;5053395;28;20606;-65
2022/10/26 12:19:31;;;;;;;7.43;3.40;;;22.90;99.90;;;;;;5054133;28;20664;-65
2022/10/26 12:22:00;;;;;;;3.77;2.50;;;23.10;99.90;;;;;;5052452;28;20642;-63
2022/10/26 12:24:32;;;;;;;3.50;2.40;;;23.00;99.90;;;;;;5052848;28;20676;-65
2022/10/26 12:27:01;;;;;;;3.90;2.63;;;23.20;99.90;;;;;;5052133;28;20590;-65
2022/10/26 12:29:49;;;;;;;11.23;3.10;;;23.20;99.90;;;;;;5053755;28;20629;-65
2022/10/26 12:32:52;;;;;;;7.23;3.53;;;23.40;99.90;;;;;;5050002;28;21189;-65
2022/10/26 12:35:42;;;;;;;8.53;3.30;;;23.70;99.90;;;;;;5065958;28;21075;-65
2022/10/26 12:38:52;;;;;;;4.30;2.80;;;23.30;99.90;;;;;;5052629;28;21143;-65
2022/10/26 12:41:25;;;;;;;5.70;2.97;;;22.90;99.90;;;;;;5032486;28;20619;-65
2022/10/26 12:43:58;;;;;;;6.73;2.90;;;22.90;99.90;;;;;;5064963;28;20661;-65
2022/10/26 12:46:41;;;;;;;9.77;3.40;;;23.20;99.90;;;;;;5071107;28;20559;-65
2022/10/26 12:49:57;;;;;;;10.13;3.20;;;23.20;99.90;;;;;;5066131;28;20610;-65
2022/10/26 12:52:52;;;;;;;3.20;3.00;;;22.90;99.90;;;;;;5059863;28;20655;-65
2022/10/26 12:56:02;;;;;;;6.20;2.90;;;22.80;99.90;;;;;;5053254;28;20608;-65
2022/10/26 12:58:54;;;;;;;3.87;2.80;;;23.30;99.90;;;;;;5052003;28;20940;-65
2022/10/26 13:01:46;;;;;;;4.27;3.00;;;22.90;99.90;;;;;;5052709;28;20982;-64
2022/10/26 13:04:49;;;;;;;3.80;2.70;;;23.20;99.90;;;;;;5064422;28;20690;-64
2022/10/26 13:07:23;;;;;;;2.80;2.60;;;23.70;99.90;;;;;;5072310;28;20675;-64
2022/10/26 13:10:01;;;;;;;7.80;3.47;;;24.00;99.90;;;;;;5062893;28;20614;-64
2022/10/26 13:12:38;;;;;;;9.03;3.67;;;23.70;99.90;;;;;;5066168;28;20990;-64
2022/10/26 13:15:20;;;;;;;5.83;3.67;;;24.40;99.90;;;;;;5069368;28;20613;-64